sensor_id;sensor_type;location;lat;lon;timestamp;temperature;humidity
11264;DHT22;5689;48.798;9.070;2023-02-24T00:00:11;9.30;99.90
11264;DHT22;5689;48.798;9.070;2023-02-24T00:03:00;9.10;99.90
11264;DHT22;5689;48.798;9.070;2023-02-24T00:05:33;9.20;99.90
11264;DHT22;5689;48.798;9.070;2023-02-24T00:08:02;9.10;99.90
11264;DHT22;5689;48.798;9.070;2023-02-24T00:10:29;9.00;99.90
11264;DHT22;5689;48.798;9.070;2023-02-24T00:12:59;9.00;99.90
11264;DHT22;5689;48.798;9.070;2023-02-24T00:15:27;9.10;99.90
11264;DHT22;5689;48.798;9.070;2023-02-24T00:17:55;9.10;99.90
11264;DHT22;5689;48.798;9.070;2023-02-24T00:20:24;9.10;99.90
11264;DHT22;5689;48.798;9.070;2023-02-24T00:22:52;9.20;99.90
11264;DHT22;5689;48.798;9.070;2023-02-24T00:25:20;9.50;99.90
11264;DHT22;5689;48.798;9.070;2023-02-24T00:27:48;9.50;99.90
11264;DHT22;5689;48.798;9.070;2023-02-24T00:30:17;9.40;99.90
11264;DHT22;5689;48.798;9.070;2023-02-24T00:32:47;9.20;99.90
11264;DHT22;5689;48.798;9.070;2023-02-24T00:35:16;9.30;99.90
11264;DHT22;5689;48.798;9.070;2023-02-24T00:37:44;9.30;99.90
11264;DHT22;5689;48.798;9.070;2023-02-24T00:40:17;9.20;99.90
11264;DHT22;5689;48.798;9.070;2023-02-24T00:42:49;9.20;99.90
11264;DHT22;5689;48.798;9.070;2023-02-24T00:45:21;9.30;99.90
11264;DHT22;5689;48.798;9.070;2023-02-24T00:47:49;9.10;99.90
11264;DHT22;5689;48.798;9.070;2023-02-24T00:50:17;8.90;99.90
11264;DHT22;5689;48.798;9.070;2023-02-24T00:52:47;8.90;99.90
11264;DHT22;5689;48.798;9.070;2023-02-24T00:55:15;9.00;99.90
11264;DHT22;5689;48.798;9.070;2023-02-24T00:57:45;9.10;99.90
11264;DHT22;5689;48.798;9.070;2023-02-24T01:00:13;9.00;99.90
11264;DHT22;5689;48.798;9.070;2023-02-24T01:02:43;9.20;99.90
11264;DHT22;5689;48.798;9.070;2023-02-24T01:05:12;9.30;99.90
11264;DHT22;5689;48.798;9.070;2023-02-24T01:07:40;9.30;99.90
11264;DHT22;5689;48.798;9.070;2023-02-24T01:10:10;9.20;99.90
11264;DHT22;5689;48.798;9.070;2023-02-24T01:12:39;9.10;99.90
11264;DHT22;5689;48.798;9.070;2023-02-24T01:15:16;9.00;99.90
11264;DHT22;5689;48.798;9.070;2023-02-24T01:17:46;8.90;99.90
11264;DHT22;5689;48.798;9.070;2023-02-24T01:20:15;8.80;99.90
11264;DHT22;5689;48.798;9.070;2023-02-24T01:22:46;8.80;99.90
11264;DHT22;5689;48.798;9.070;2023-02-24T01:25:15;8.80;99.90
11264;DHT22;5689;48.798;9.070;2023-02-24T01:27:43;8.90;99.90
11264;DHT22;5689;48.798;9.070;2023-02-24T01:30:12;8.90;99.90
11264;DHT22;5689;48.798;9.070;2023-02-24T01:32:42;8.80;99.90
11264;DHT22;5689;48.798;9.070;2023-02-24T01:35:12;8.80;99.90
11264;DHT22;5689;48.798;9.070;2023-02-24T01:37:40;8.80;99.90
11264;DHT22;5689;48.798;9.070;2023-02-24T01:40:12;8.70;99.90
11264;DHT22;5689;48.798;9.070;2023-02-24T01:42:46;8.80;99.90
11264;DHT22;5689;48.798;9.070;2023-02-24T01:45:21;8.90;99.90
11264;DHT22;5689;48.798;9.070;2023-02-24T01:47:50;8.80;99.90
11264;DHT22;5689;48.798;9.070;2023-02-24T01:50:22;8.90;99.90
11264;DHT22;5689;48.798;9.070;2023-02-24T01:52:55;9.00;99.90
11264;DHT22;5689;48.798;9.070;2023-02-24T01:55:27;8.90;99.90
11264;DHT22;5689;48.798;9.070;2023-02-24T01:58:00;9.10;99.90
11264;DHT22;5689;48.798;9.070;2023-02-24T02:00:30;9.20;99.90
11264;DHT22;5689;48.798;9.070;2023-02-24T02:03:23;9.20;99.90
11264;DHT22;5689;48.798;9.070;2023-02-24T02:05:58;9.20;99.90
11264;DHT22;5689;48.798;9.070;2023-02-24T02:08:27;9.00;99.90
11264;DHT22;5689;48.798;9.070;2023-02-24T02:10:59;9.00;99.90
11264;DHT22;5689;48.798;9.070;2023-02-24T02:13:33;9.00;99.90
11264;DHT22;5689;48.798;9.070;2023-02-24T02:16:20;9.00;99.90
11264;DHT22;5689;48.798;9.070;2023-02-24T02:18:55;9.00;99.90
11264;DHT22;5689;48.798;9.070;2023-02-24T02:30:51;9.00;99.90
11264;DHT22;5689;48.798;9.070;2023-02-24T02:34:00;9.20;99.90
11264;DHT22;5689;48.798;9.070;2023-02-24T02:36:36;9.00;99.90
11264;DHT22;5689;48.798;9.070;2023-02-24T02:39:12;8.90;99.90
11264;DHT22;5689;48.798;9.070;2023-02-24T02:41:48;8.90;99.90
11264;DHT22;5689;48.798;9.070;2023-02-24T02:44:21;8.80;99.90
11264;DHT22;5689;48.798;9.070;2023-02-24T02:46:55;8.80;99.90
11264;DHT22;5689;48.798;9.070;2023-02-24T02:49:29;8.80;99.90
11264;DHT22;5689;48.798;9.070;2023-02-24T02:52:03;8.80;99.90
11264;DHT22;5689;48.798;9.070;2023-02-24T02:54:38;8.70;99.90
11264;DHT22;5689;48.798;9.070;2023-02-24T02:57:16;8.90;99.90
11264;DHT22;5689;48.798;9.070;2023-02-24T02:59:50;8.90;99.90
11264;DHT22;5689;48.798;9.070;2023-02-24T03:02:23;8.80;99.90
11264;DHT22;5689;48.798;9.070;2023-02-24T03:04:58;8.90;99.90
11264;DHT22;5689;48.798;9.070;2023-02-24T03:07:32;9.00;99.90
11264;DHT22;5689;48.798;9.070;2023-02-24T03:10:03;8.90;99.90
11264;DHT22;5689;48.798;9.070;2023-02-24T03:12:38;8.80;99.90
11264;DHT22;5689;48.798;9.070;2023-02-24T03:15:09;8.70;99.90
11264;DHT22;5689;48.798;9.070;2023-02-24T03:17:39;8.70;99.90
11264;DHT22;5689;48.798;9.070;2023-02-24T03:20:15;8.60;99.90
11264;DHT22;5689;48.798;9.070;2023-02-24T03:22:51;8.50;99.90
11264;DHT22;5689;48.798;9.070;2023-02-24T03:25:24;8.70;99.90
11264;DHT22;5689;48.798;9.070;2023-02-24T03:27:58;8.70;99.90
11264;DHT22;5689;48.798;9.070;2023-02-24T03:30:37;8.80;99.90
11264;DHT22;5689;48.798;9.070;2023-02-24T03:33:11;8.90;99.90
11264;DHT22;5689;48.798;9.070;2023-02-24T03:35:44;8.90;99.90
11264;DHT22;5689;48.798;9.070;2023-02-24T03:38:12;8.90;99.90
11264;DHT22;5689;48.798;9.070;2023-02-24T03:40:41;8.90;99.90
11264;DHT22;5689;48.798;9.070;2023-02-24T03:43:17;8.80;99.90
11264;DHT22;5689;48.798;9.070;2023-02-24T03:45:48;8.60;99.90
11264;DHT22;5689;48.798;9.070;2023-02-24T03:48:16;8.60;99.90
11264;DHT22;5689;48.798;9.070;2023-02-24T03:50:47;8.60;99.90
11264;DHT22;5689;48.798;9.070;2023-02-24T03:53:54;8.70;99.90
11264;DHT22;5689;48.798;9.070;2023-02-24T03:56:30;8.80;99.90
11264;DHT22;5689;48.798;9.070;2023-02-24T03:59:09;9.00;99.90
11264;DHT22;5689;48.798;9.070;2023-02-24T04:01:46;8.80;99.90
11264;DHT22;5689;48.798;9.070;2023-02-24T04:04:26;8.70;99.90
11264;DHT22;5689;48.798;9.070;2023-02-24T04:07:27;8.50;99.90
11264;DHT22;5689;48.798;9.070;2023-02-24T04:10:05;8.40;99.90
11264;DHT22;5689;48.798;9.070;2023-02-24T04:12:42;8.40;99.90
11264;DHT22;5689;48.798;9.070;2023-02-24T04:15:18;8.50;99.90
11264;DHT22;5689;48.798;9.070;2023-02-24T04:17:49;8.30;99.90
11264;DHT22;5689;48.798;9.070;2023-02-24T04:20:21;8.20;99.90
11264;DHT22;5689;48.798;9.070;2023-02-24T04:25:31;8.40;99.90
11264;DHT22;5689;48.798;9.070;2023-02-24T04:28:00;8.50;99.90
11264;DHT22;5689;48.798;9.070;2023-02-24T04:30:33;8.50;99.90
11264;DHT22;5689;48.798;9.070;2023-02-24T04:33:02;8.50;99.90
11264;DHT22;5689;48.798;9.070;2023-02-24T04:35:30;8.30;99.90
11264;DHT22;5689;48.798;9.070;2023-02-24T04:37:59;8.40;99.90
11264;DHT22;5689;48.798;9.070;2023-02-24T04:40:28;8.40;99.90
11264;DHT22;5689;48.798;9.070;2023-02-24T04:42:57;8.40;99.90
11264;DHT22;5689;48.798;9.070;2023-02-24T04:45:26;8.50;99.90
11264;DHT22;5689;48.798;9.070;2023-02-24T04:47:56;8.50;99.90
11264;DHT22;5689;48.798;9.070;2023-02-24T04:50:30;8.60;99.90
11264;DHT22;5689;48.798;9.070;2023-02-24T04:53:00;8.70;99.90
11264;DHT22;5689;48.798;9.070;2023-02-24T04:55:30;8.60;99.90
11264;DHT22;5689;48.798;9.070;2023-02-24T04:58:01;8.50;99.90
11264;DHT22;5689;48.798;9.070;2023-02-24T05:00:29;8.20;99.90
11264;DHT22;5689;48.798;9.070;2023-02-24T05:03:02;8.10;99.90
11264;DHT22;5689;48.798;9.070;2023-02-24T05:05:31;8.20;99.90
11264;DHT22;5689;48.798;9.070;2023-02-24T05:08:01;8.10;99.90
11264;DHT22;5689;48.798;9.070;2023-02-24T05:10:34;8.00;99.90
11264;DHT22;5689;48.798;9.070;2023-02-24T05:13:04;7.90;99.90
11264;DHT22;5689;48.798;9.070;2023-02-24T05:15:33;8.00;99.90
11264;DHT22;5689;48.798;9.070;2023-02-24T05:18:04;7.90;99.90
11264;DHT22;5689;48.798;9.070;2023-02-24T05:20:35;7.90;99.90
11264;DHT22;5689;48.798;9.070;2023-02-24T05:23:24;8.00;99.90
11264;DHT22;5689;48.798;9.070;2023-02-24T05:25:52;8.10;99.90
11264;DHT22;5689;48.798;9.070;2023-02-24T05:28:22;8.30;99.90
11264;DHT22;5689;48.798;9.070;2023-02-24T05:30:51;8.20;99.90
11264;DHT22;5689;48.798;9.070;2023-02-24T05:33:20;8.10;99.90
11264;DHT22;5689;48.798;9.070;2023-02-24T05:35:48;8.10;99.90
11264;DHT22;5689;48.798;9.070;2023-02-24T05:38:17;8.20;99.90
11264;DHT22;5689;48.798;9.070;2023-02-24T05:40:46;8.30;99.90
11264;DHT22;5689;48.798;9.070;2023-02-24T05:43:14;8.30;99.90
11264;DHT22;5689;48.798;9.070;2023-02-24T05:45:46;8.30;99.90
11264;DHT22;5689;48.798;9.070;2023-02-24T05:48:15;8.40;99.90
11264;DHT22;5689;48.798;9.070;2023-02-24T05:50:50;8.50;99.90
11264;DHT22;5689;48.798;9.070;2023-02-24T05:53:20;8.60;99.90
11264;DHT22;5689;48.798;9.070;2023-02-24T05:55:49;8.80;99.90
11264;DHT22;5689;48.798;9.070;2023-02-24T05:58:17;8.80;99.90
11264;DHT22;5689;48.798;9.070;2023-02-24T06:00:46;8.70;99.90
11264;DHT22;5689;48.798;9.070;2023-02-24T06:03:14;8.50;99.90
11264;DHT22;5689;48.798;9.070;2023-02-24T06:05:43;8.60;99.90
11264;DHT22;5689;48.798;9.070;2023-02-24T06:08:19;8.60;99.90
11264;DHT22;5689;48.798;9.070;2023-02-24T06:10:50;8.50;99.90
11264;DHT22;5689;48.798;9.070;2023-02-24T06:13:18;8.30;99.90
11264;DHT22;5689;48.798;9.070;2023-02-24T06:15:47;8.30;99.90
11264;DHT22;5689;48.798;9.070;2023-02-24T06:18:16;8.10;99.90
11264;DHT22;5689;48.798;9.070;2023-02-24T06:20:44;8.00;99.90
11264;DHT22;5689;48.798;9.070;2023-02-24T06:23:16;7.90;99.90
11264;DHT22;5689;48.798;9.070;2023-02-24T06:25:45;7.80;99.90
11264;DHT22;5689;48.798;9.070;2023-02-24T06:28:13;7.70;99.90
11264;DHT22;5689;48.798;9.070;2023-02-24T06:30:40;7.90;99.90
11264;DHT22;5689;48.798;9.070;2023-02-24T06:33:10;7.90;99.90
11264;DHT22;5689;48.798;9.070;2023-02-24T06:35:38;7.70;99.90
11264;DHT22;5689;48.798;9.070;2023-02-24T06:38:06;7.80;99.90
11264;DHT22;5689;48.798;9.070;2023-02-24T06:40:34;7.80;99.90
11264;DHT22;5689;48.798;9.070;2023-02-24T06:43:03;8.00;99.90
11264;DHT22;5689;48.798;9.070;2023-02-24T06:45:31;8.00;99.90
11264;DHT22;5689;48.798;9.070;2023-02-24T06:47:59;8.20;99.90
11264;DHT22;5689;48.798;9.070;2023-02-24T06:50:30;8.30;99.90
11264;DHT22;5689;48.798;9.070;2023-02-24T06:52:58;8.10;99.90
11264;DHT22;5689;48.798;9.070;2023-02-24T06:55:26;8.00;99.90
11264;DHT22;5689;48.798;9.070;2023-02-24T06:57:56;8.00;99.90
11264;DHT22;5689;48.798;9.070;2023-02-24T07:00:26;8.00;99.90
11264;DHT22;5689;48.798;9.070;2023-02-24T07:03:05;8.10;99.90
11264;DHT22;5689;48.798;9.070;2023-02-24T07:05:44;8.00;99.90
11264;DHT22;5689;48.798;9.070;2023-02-24T07:08:20;8.10;99.90
11264;DHT22;5689;48.798;9.070;2023-02-24T07:10:53;8.20;99.90
11264;DHT22;5689;48.798;9.070;2023-02-24T07:13:22;8.10;99.90
11264;DHT22;5689;48.798;9.070;2023-02-24T07:15:51;7.90;99.90
11264;DHT22;5689;48.798;9.070;2023-02-24T07:18:21;7.90;99.90
11264;DHT22;5689;48.798;9.070;2023-02-24T07:20:53;7.70;99.90
11264;DHT22;5689;48.798;9.070;2023-02-24T07:23:21;7.70;99.90
11264;DHT22;5689;48.798;9.070;2023-02-24T07:25:49;7.60;99.90
11264;DHT22;5689;48.798;9.070;2023-02-24T07:28:19;7.70;99.90
11264;DHT22;5689;48.798;9.070;2023-02-24T07:30:46;7.80;99.90
11264;DHT22;5689;48.798;9.070;2023-02-24T07:33:15;7.90;99.90
11264;DHT22;5689;48.798;9.070;2023-02-24T07:35:48;7.90;99.90
11264;DHT22;5689;48.798;9.070;2023-02-24T07:38:18;8.00;99.90
11264;DHT22;5689;48.798;9.070;2023-02-24T07:40:49;8.20;99.90
11264;DHT22;5689;48.798;9.070;2023-02-24T07:43:17;8.30;99.90
11264;DHT22;5689;48.798;9.070;2023-02-24T07:45:45;8.40;99.90
11264;DHT22;5689;48.798;9.070;2023-02-24T07:48:13;8.30;99.90
11264;DHT22;5689;48.798;9.070;2023-02-24T07:50:42;8.40;99.90
11264;DHT22;5689;48.798;9.070;2023-02-24T07:53:10;8.40;99.90
11264;DHT22;5689;48.798;9.070;2023-02-24T07:55:39;8.50;99.90
11264;DHT22;5689;48.798;9.070;2023-02-24T07:58:08;8.40;99.90
11264;DHT22;5689;48.798;9.070;2023-02-24T08:00:36;8.30;99.90
11264;DHT22;5689;48.798;9.070;2023-02-24T08:03:26;8.30;99.90
11264;DHT22;5689;48.798;9.070;2023-02-24T08:05:57;8.30;99.90
11264;DHT22;5689;48.798;9.070;2023-02-24T08:08:38;8.20;99.90
11264;DHT22;5689;48.798;9.070;2023-02-24T08:11:27;8.30;99.90
11264;DHT22;5689;48.798;9.070;2023-02-24T08:14:01;8.40;99.90
11264;DHT22;5689;48.798;9.070;2023-02-24T08:16:29;8.30;99.90
11264;DHT22;5689;48.798;9.070;2023-02-24T08:19:05;8.50;99.90
11264;DHT22;5689;48.798;9.070;2023-02-24T08:21:33;8.90;99.90
11264;DHT22;5689;48.798;9.070;2023-02-24T08:24:05;9.20;99.90
11264;DHT22;5689;48.798;9.070;2023-02-24T08:26:34;9.00;99.90
11264;DHT22;5689;48.798;9.070;2023-02-24T08:29:10;8.90;99.90
11264;DHT22;5689;48.798;9.070;2023-02-24T08:31:39;8.90;99.90
11264;DHT22;5689;48.798;9.070;2023-02-24T08:34:08;8.80;99.90
11264;DHT22;5689;48.798;9.070;2023-02-24T08:36:41;8.80;99.90
11264;DHT22;5689;48.798;9.070;2023-02-24T08:39:14;8.80;99.90
11264;DHT22;5689;48.798;9.070;2023-02-24T08:41:43;9.10;99.90
11264;DHT22;5689;48.798;9.070;2023-02-24T08:44:17;9.30;99.90
11264;DHT22;5689;48.798;9.070;2023-02-24T08:46:46;9.50;99.90
11264;DHT22;5689;48.798;9.070;2023-02-24T08:49:16;9.90;99.90
11264;DHT22;5689;48.798;9.070;2023-02-24T08:51:45;10.30;99.90
11264;DHT22;5689;48.798;9.070;2023-02-24T08:54:15;10.60;99.90
11264;DHT22;5689;48.798;9.070;2023-02-24T08:56:46;10.70;99.90
11264;DHT22;5689;48.798;9.070;2023-02-24T08:59:23;10.50;99.90
11264;DHT22;5689;48.798;9.070;2023-02-24T09:02:06;10.40;99.90
11264;DHT22;5689;48.798;9.070;2023-02-24T09:04:51;10.80;99.90
11264;DHT22;5689;48.798;9.070;2023-02-24T09:07:22;11.10;99.90
11264;DHT22;5689;48.798;9.070;2023-02-24T09:09:51;11.00;99.90
11264;DHT22;5689;48.798;9.070;2023-02-24T09:12:25;10.70;99.90
11264;DHT22;5689;48.798;9.070;2023-02-24T09:14:57;10.40;99.90
11264;DHT22;5689;48.798;9.070;2023-02-24T09:17:28;10.40;99.90
11264;DHT22;5689;48.798;9.070;2023-02-24T09:20:09;10.10;99.90
11264;DHT22;5689;48.798;9.070;2023-02-24T09:23:12;10.00;99.90
11264;DHT22;5689;48.798;9.070;2023-02-24T09:25:46;9.80;99.90
11264;DHT22;5689;48.798;9.070;2023-02-24T09:28:19;9.60;99.90
11264;DHT22;5689;48.798;9.070;2023-02-24T09:30:51;9.80;99.90
11264;DHT22;5689;48.798;9.070;2023-02-24T09:33:24;9.70;99.90
11264;DHT22;5689;48.798;9.070;2023-02-24T09:35:56;9.60;99.90
11264;DHT22;5689;48.798;9.070;2023-02-24T09:38:36;9.80;99.90
11264;DHT22;5689;48.798;9.070;2023-02-24T09:41:26;10.00;99.90
11264;DHT22;5689;48.798;9.070;2023-02-24T09:44:02;10.40;99.90
11264;DHT22;5689;48.798;9.070;2023-02-24T09:46:41;10.80;99.90
11264;DHT22;5689;48.798;9.070;2023-02-24T09:49:21;11.00;99.90
11264;DHT22;5689;48.798;9.070;2023-02-24T09:51:50;10.70;99.90
11264;DHT22;5689;48.798;9.070;2023-02-24T09:54:30;10.60;99.90
11264;DHT22;5689;48.798;9.070;2023-02-24T09:57:02;10.10;99.90
11264;DHT22;5689;48.798;9.070;2023-02-24T09:59:47;10.00;99.90
11264;DHT22;5689;48.798;9.070;2023-02-24T10:02:40;9.70;99.90
11264;DHT22;5689;48.798;9.070;2023-02-24T10:05:21;9.60;99.90
11264;DHT22;5689;48.798;9.070;2023-02-24T10:07:53;9.60;99.90
11264;DHT22;5689;48.798;9.070;2023-02-24T10:10:25;9.60;99.90
11264;DHT22;5689;48.798;9.070;2023-02-24T10:13:00;9.60;99.90
11264;DHT22;5689;48.798;9.070;2023-02-24T10:15:41;9.70;99.90
11264;DHT22;5689;48.798;9.070;2023-02-24T10:18:38;9.80;99.90
11264;DHT22;5689;48.798;9.070;2023-02-24T10:21:17;9.80;99.90
11264;DHT22;5689;48.798;9.070;2023-02-24T10:24:04;9.80;99.90
11264;DHT22;5689;48.798;9.070;2023-02-24T10:26:38;9.70;99.90
11264;DHT22;5689;48.798;9.070;2023-02-24T10:29:34;9.60;99.90
11264;DHT22;5689;48.798;9.070;2023-02-24T10:32:18;9.80;99.90
11264;DHT22;5689;48.798;9.070;2023-02-24T10:34:49;9.80;99.90
11264;DHT22;5689;48.798;9.070;2023-02-24T10:37:19;9.90;99.90
11264;DHT22;5689;48.798;9.070;2023-02-24T10:39:56;9.90;99.90
11264;DHT22;5689;48.798;9.070;2023-02-24T10:42:26;9.80;99.90
11264;DHT22;5689;48.798;9.070;2023-02-24T10:45:12;9.80;99.90
11264;DHT22;5689;48.798;9.070;2023-02-24T10:47:49;9.60;99.90
11264;DHT22;5689;48.798;9.070;2023-02-24T10:50:24;9.30;99.90
11264;DHT22;5689;48.798;9.070;2023-02-24T10:52:59;9.30;99.90
11264;DHT22;5689;48.798;9.070;2023-02-24T10:56:14;9.30;99.90
11264;DHT22;5689;48.798;9.070;2023-02-24T10:59:00;9.40;99.90
11264;DHT22;5689;48.798;9.070;2023-02-24T11:01:43;9.40;99.90
11264;DHT22;5689;48.798;9.070;2023-02-24T11:04:22;9.30;99.90
11264;DHT22;5689;48.798;9.070;2023-02-24T11:07:20;9.40;99.90
11264;DHT22;5689;48.798;9.070;2023-02-24T11:10:04;9.50;99.90
11264;DHT22;5689;48.798;9.070;2023-02-24T11:12:44;9.60;99.90
11264;DHT22;5689;48.798;9.070;2023-02-24T11:15:37;9.90;99.90
11264;DHT22;5689;48.798;9.070;2023-02-24T11:18:27;10.00;99.90
11264;DHT22;5689;48.798;9.070;2023-02-24T11:20:58;9.80;99.90
11264;DHT22;5689;48.798;9.070;2023-02-24T11:23:32;9.80;99.90
11264;DHT22;5689;48.798;9.070;2023-02-24T11:26:06;9.80;99.90
11264;DHT22;5689;48.798;9.070;2023-02-24T11:28:56;10.00;99.90
11264;DHT22;5689;48.798;9.070;2023-02-24T11:31:36;10.10;99.90
11264;DHT22;5689;48.798;9.070;2023-02-24T11:34:21;10.20;99.90
11264;DHT22;5689;48.798;9.070;2023-02-24T11:37:05;10.50;99.90
11264;DHT22;5689;48.798;9.070;2023-02-24T11:39:54;10.00;99.90
11264;DHT22;5689;48.798;9.070;2023-02-24T11:42:25;9.90;99.90
11264;DHT22;5689;48.798;9.070;2023-02-24T11:45:01;10.00;99.90
11264;DHT22;5689;48.798;9.070;2023-02-24T11:47:35;10.20;99.90
11264;DHT22;5689;48.798;9.070;2023-02-24T11:50:25;10.40;99.90
11264;DHT22;5689;48.798;9.070;2023-02-24T11:52:58;10.40;99.90
11264;DHT22;5689;48.798;9.070;2023-02-24T11:55:32;10.40;99.90
11264;DHT22;5689;48.798;9.070;2023-02-24T11:58:11;10.50;99.90
11264;DHT22;5689;48.798;9.070;2023-02-24T12:00:48;10.50;99.90
11264;DHT22;5689;48.798;9.070;2023-02-24T12:03:24;10.50;99.90
11264;DHT22;5689;48.798;9.070;2023-02-24T12:06:00;10.30;99.90
11264;DHT22;5689;48.798;9.070;2023-02-24T12:08:35;10.40;99.90
11264;DHT22;5689;48.798;9.070;2023-02-24T12:11:12;10.60;99.90
11264;DHT22;5689;48.798;9.070;2023-02-24T12:13:47;10.70;99.90
11264;DHT22;5689;48.798;9.070;2023-02-24T12:16:20;10.80;99.90
11264;DHT22;5689;48.798;9.070;2023-02-24T12:18:53;10.90;99.90
11264;DHT22;5689;48.798;9.070;2023-02-24T12:21:25;10.90;99.90
11264;DHT22;5689;48.798;9.070;2023-02-24T12:23:58;11.50;99.90
11264;DHT22;5689;48.798;9.070;2023-02-24T12:26:32;11.90;99.90
11264;DHT22;5689;48.798;9.070;2023-02-24T12:29:29;11.90;99.90
11264;DHT22;5689;48.798;9.070;2023-02-24T12:32:06;12.10;99.90
11264;DHT22;5689;48.798;9.070;2023-02-24T12:34:44;12.10;99.90
11264;DHT22;5689;48.798;9.070;2023-02-24T12:37:35;12.50;99.90
11264;DHT22;5689;48.798;9.070;2023-02-24T12:40:19;12.80;99.90
11264;DHT22;5689;48.798;9.070;2023-02-24T12:42:55;12.80;99.90
11264;DHT22;5689;48.798;9.070;2023-02-24T12:45:31;13.20;99.90
11264;DHT22;5689;48.798;9.070;2023-02-24T12:48:13;12.90;99.90
11264;DHT22;5689;48.798;9.070;2023-02-24T12:50:50;13.30;99.90
11264;DHT22;5689;48.798;9.070;2023-02-24T12:53:28;12.80;99.90
11264;DHT22;5689;48.798;9.070;2023-02-24T12:56:09;12.40;99.90
11264;DHT22;5689;48.798;9.070;2023-02-24T12:58:44;12.20;99.90
11264;DHT22;5689;48.798;9.070;2023-02-24T13:01:19;12.20;99.90
11264;DHT22;5689;48.798;9.070;2023-02-24T13:04:06;12.30;99.90
11264;DHT22;5689;48.798;9.070;2023-02-24T13:06:49;11.70;99.90
11264;DHT22;5689;48.798;9.070;2023-02-24T13:09:23;11.80;99.90
11264;DHT22;5689;48.798;9.070;2023-02-24T13:12:00;11.60;99.90
11264;DHT22;5689;48.798;9.070;2023-02-24T13:14:33;11.30;99.90
11264;DHT22;5689;48.798;9.070;2023-02-24T13:19:47;10.90;99.90
11264;DHT22;5689;48.798;9.070;2023-02-24T13:22:21;11.00;99.90
11264;DHT22;5689;48.798;9.070;2023-02-24T13:25:20;10.90;99.90
11264;DHT22;5689;48.798;9.070;2023-02-24T13:27:58;10.80;99.90
11264;DHT22;5689;48.798;9.070;2023-02-24T13:30:38;10.80;99.90
11264;DHT22;5689;48.798;9.070;2023-02-24T13:33:22;10.70;99.90
11264;DHT22;5689;48.798;9.070;2023-02-24T13:36:06;10.70;99.90
11264;DHT22;5689;48.798;9.070;2023-02-24T13:38:36;10.70;99.90
11264;DHT22;5689;48.798;9.070;2023-02-24T13:41:08;10.90;99.90
11264;DHT22;5689;48.798;9.070;2023-02-24T13:43:53;11.30;99.90
11264;DHT22;5689;48.798;9.070;2023-02-24T13:46:22;11.60;99.90
11264;DHT22;5689;48.798;9.070;2023-02-24T13:48:59;11.60;99.90
11264;DHT22;5689;48.798;9.070;2023-02-24T13:51:52;11.50;99.90
11264;DHT22;5689;48.798;9.070;2023-02-24T13:57:46;11.20;99.90
11264;DHT22;5689;48.798;9.070;2023-02-24T14:00:24;11.30;99.90
11264;DHT22;5689;48.798;9.070;2023-02-24T14:02:54;11.10;99.90
11264;DHT22;5689;48.798;9.070;2023-02-24T14:05:25;10.80;99.90
11264;DHT22;5689;48.798;9.070;2023-02-24T14:07:54;10.70;99.90
11264;DHT22;5689;48.798;9.070;2023-02-24T14:10:24;10.70;99.90
11264;DHT22;5689;48.798;9.070;2023-02-24T14:13:01;10.30;99.90
11264;DHT22;5689;48.798;9.070;2023-02-24T14:15:31;10.20;99.90
11264;DHT22;5689;48.798;9.070;2023-02-24T14:18:01;10.30;99.90
11264;DHT22;5689;48.798;9.070;2023-02-24T14:20:31;10.20;99.90
11264;DHT22;5689;48.798;9.070;2023-02-24T14:22:59;10.30;99.90
11264;DHT22;5689;48.798;9.070;2023-02-24T14:25:29;10.40;99.90
11264;DHT22;5689;48.798;9.070;2023-02-24T14:28:02;10.50;99.90
11264;DHT22;5689;48.798;9.070;2023-02-24T14:30:32;10.40;99.90
11264;DHT22;5689;48.798;9.070;2023-02-24T14:33:02;10.40;99.90
11264;DHT22;5689;48.798;9.070;2023-02-24T14:35:34;10.40;99.90
11264;DHT22;5689;48.798;9.070;2023-02-24T14:38:03;10.30;99.90
11264;DHT22;5689;48.798;9.070;2023-02-24T14:40:31;10.30;99.90
11264;DHT22;5689;48.798;9.070;2023-02-24T14:42:59;10.20;99.90
11264;DHT22;5689;48.798;9.070;2023-02-24T14:45:30;10.20;99.90
11264;DHT22;5689;48.798;9.070;2023-02-24T14:47:58;10.10;99.90
11264;DHT22;5689;48.798;9.070;2023-02-24T14:50:28;10.10;99.90
11264;DHT22;5689;48.798;9.070;2023-02-24T14:53:00;10.10;99.90
11264;DHT22;5689;48.798;9.070;2023-02-24T14:55:33;10.10;99.90
11264;DHT22;5689;48.798;9.070;2023-02-24T14:58:06;10.30;99.90
11264;DHT22;5689;48.798;9.070;2023-02-24T15:00:44;10.20;99.90
11264;DHT22;5689;48.798;9.070;2023-02-24T15:03:17;10.00;99.90
11264;DHT22;5689;48.798;9.070;2023-02-24T15:05:48;10.00;99.90
11264;DHT22;5689;48.798;9.070;2023-02-24T15:08:26;9.90;99.90
11264;DHT22;5689;48.798;9.070;2023-02-24T15:10:56;10.00;99.90
11264;DHT22;5689;48.798;9.070;2023-02-24T15:13:28;9.90;99.90
11264;DHT22;5689;48.798;9.070;2023-02-24T15:16:04;9.90;99.90
11264;DHT22;5689;48.798;9.070;2023-02-24T15:18:35;9.90;99.90
11264;DHT22;5689;48.798;9.070;2023-02-24T15:21:05;9.90;99.90
11264;DHT22;5689;48.798;9.070;2023-02-24T15:23:35;10.00;99.90
11264;DHT22;5689;48.798;9.070;2023-02-24T15:26:04;9.90;99.90
11264;DHT22;5689;48.798;9.070;2023-02-24T15:28:35;9.90;99.90
11264;DHT22;5689;48.798;9.070;2023-02-24T15:31:07;9.90;99.90
11264;DHT22;5689;48.798;9.070;2023-02-24T15:33:39;10.00;99.90
11264;DHT22;5689;48.798;9.070;2023-02-24T15:36:14;10.00;99.90
11264;DHT22;5689;48.798;9.070;2023-02-24T15:38:44;9.90;99.90
11264;DHT22;5689;48.798;9.070;2023-02-24T15:41:13;9.90;99.90
11264;DHT22;5689;48.798;9.070;2023-02-24T15:43:45;9.80;99.90
11264;DHT22;5689;48.798;9.070;2023-02-24T15:46:21;9.80;99.90
11264;DHT22;5689;48.798;9.070;2023-02-24T15:48:51;9.80;99.90
11264;DHT22;5689;48.798;9.070;2023-02-24T15:51:28;9.60;99.90
11264;DHT22;5689;48.798;9.070;2023-02-24T15:53:59;9.50;99.90
11264;DHT22;5689;48.798;9.070;2023-02-24T15:56:27;9.50;99.90
11264;DHT22;5689;48.798;9.070;2023-02-24T15:58:55;9.70;99.90
11264;DHT22;5689;48.798;9.070;2023-02-24T16:01:28;9.80;99.90
11264;DHT22;5689;48.798;9.070;2023-02-24T16:03:56;9.60;99.90
11264;DHT22;5689;48.798;9.070;2023-02-24T16:06:24;9.60;99.90
11264;DHT22;5689;48.798;9.070;2023-02-24T16:08:54;9.60;99.90
11264;DHT22;5689;48.798;9.070;2023-02-24T16:11:26;9.60;99.90
11264;DHT22;5689;48.798;9.070;2023-02-24T16:13:57;9.60;99.90
11264;DHT22;5689;48.798;9.070;2023-02-24T16:16:27;9.70;99.90
11264;DHT22;5689;48.798;9.070;2023-02-24T16:18:55;9.70;99.90
11264;DHT22;5689;48.798;9.070;2023-02-24T16:21:23;9.60;99.90
11264;DHT22;5689;48.798;9.070;2023-02-24T16:23:51;9.50;99.90
11264;DHT22;5689;48.798;9.070;2023-02-24T16:26:21;9.40;99.90
11264;DHT22;5689;48.798;9.070;2023-02-24T16:28:52;9.30;99.90
11264;DHT22;5689;48.798;9.070;2023-02-24T16:31:21;9.20;99.90
11264;DHT22;5689;48.798;9.070;2023-02-24T16:33:50;9.00;99.90
11264;DHT22;5689;48.798;9.070;2023-02-24T16:36:22;9.00;99.90
11264;DHT22;5689;48.798;9.070;2023-02-24T16:38:50;8.90;99.90
11264;DHT22;5689;48.798;9.070;2023-02-24T16:41:18;8.80;99.90
11264;DHT22;5689;48.798;9.070;2023-02-24T16:43:46;8.80;99.90
11264;DHT22;5689;48.798;9.070;2023-02-24T16:46:17;8.80;99.90
11264;DHT22;5689;48.798;9.070;2023-02-24T16:48:47;8.80;99.90
11264;DHT22;5689;48.798;9.070;2023-02-24T16:51:18;8.80;99.90
11264;DHT22;5689;48.798;9.070;2023-02-24T16:53:46;8.70;99.90
11264;DHT22;5689;48.798;9.070;2023-02-24T16:56:14;8.70;99.90